createdAt,value
2018-12-19T00:00:31.575Z,98388.70
2018-12-19T00:02:59.350Z,98380.73
2018-12-19T00:05:27.060Z,98372.56
2018-12-19T00:07:54.545Z,98373.79
2018-12-19T00:10:22.251Z,98371.81
2018-12-19T00:12:51.196Z,98364.71
2018-12-19T00:15:19.041Z,98363.51
2018-12-19T00:17:49.492Z,98369.09
2018-12-19T00:20:15.936Z,98366.27
2018-12-19T00:22:45.206Z,98359.86
2018-12-19T00:27:51.974Z,98355.11
2018-12-19T00:30:20.279Z,98351.52
2018-12-19T00:32:50.192Z,98359.05
2018-12-19T00:35:19.032Z,98355.86
2018-12-19T00:37:47.035Z,98343.97
2018-12-19T00:42:47.330Z,98358.55
2018-12-19T00:45:15.063Z,98352.30
2018-12-19T00:47:43.082Z,98355.71
2018-12-19T00:50:10.221Z,98353.73
2018-12-19T00:52:37.277Z,98349.33
2018-12-19T00:55:05.358Z,98344.73
2018-12-19T00:57:33.716Z,98350.72
2018-12-19T01:00:01.995Z,98355.59
2018-12-19T01:02:29.663Z,98349.27
2018-12-19T01:04:58.466Z,98361.40
2018-12-19T01:07:26.811Z,98361.72
2018-12-19T01:09:55.055Z,98366.48
2018-12-19T01:12:22.784Z,98366.11
2018-12-19T01:14:49.918Z,98369.78
2018-12-19T01:17:17.491Z,98364.48
2018-12-19T01:19:44.795Z,98360.89
2018-12-19T01:24:47.974Z,98374.79
2018-12-19T01:27:15.954Z,98375.75
2018-12-19T01:29:43.288Z,98368.52
2018-12-19T01:32:10.297Z,98365.55
2018-12-19T01:34:41.544Z,98366.59
2018-12-19T01:37:12.047Z,98357.38
2018-12-19T01:39:39.189Z,98358.06
2018-12-19T01:42:07.539Z,98354.78
2018-12-19T01:44:35.750Z,98360.00
2018-12-19T01:47:02.898Z,98355.84
2018-12-19T01:54:34.163Z,98349.48
2018-12-19T01:57:01.952Z,98346.08
2018-12-19T01:59:31.312Z,98341.43
2018-12-19T02:01:57.781Z,98336.97
2018-12-19T02:04:25.641Z,98335.86
2018-12-19T02:06:52.482Z,98337.39
2018-12-19T02:09:19.334Z,98333.16
2018-12-19T02:11:47.397Z,98329.99
2018-12-19T02:14:14.960Z,98331.74
2018-12-19T02:16:42.486Z,98317.67
2018-12-19T02:19:11.017Z,98316.92
2018-12-19T02:21:38.360Z,98314.07
2018-12-19T02:24:06.556Z,98305.66
2018-12-19T02:26:35.660Z,98317.78
2018-12-19T02:29:04.123Z,98315.50
2018-12-19T02:31:32.082Z,98310.69
2018-12-19T02:34:00.806Z,98307.69
2018-12-19T02:36:27.710Z,98310.63
2018-12-19T02:38:54.254Z,98305.61
2018-12-19T02:41:20.725Z,98312.86
2018-12-19T02:43:48.887Z,98312.16
2018-12-19T02:46:16.355Z,98309.45
2018-12-19T02:48:43.263Z,98309.69
2018-12-19T02:51:10.683Z,98301.66
2018-12-19T02:53:38.781Z,98304.59
2018-12-19T02:56:06.376Z,98302.13
2018-12-19T02:58:35.343Z,98294.34
2018-12-19T03:01:01.895Z,98284.98
2018-12-19T03:03:29.313Z,98287.70
2018-12-19T03:05:56.829Z,98284.88
2018-12-19T03:08:23.969Z,98282.41
2018-12-19T03:10:52.030Z,98277.38
2018-12-19T03:13:20.643Z,98267.12
2018-12-19T03:15:48.627Z,98282.97
2018-12-19T03:18:15.817Z,98281.09
2018-12-19T03:20:43.403Z,98278.74
2018-12-19T03:23:11.257Z,98279.30
2018-12-19T03:25:38.098Z,98279.55
2018-12-19T03:28:05.656Z,98283.08
2018-12-19T03:30:34.447Z,98282.48
2018-12-19T03:33:01.836Z,98291.55
2018-12-19T03:35:29.485Z,98286.34
2018-12-19T03:37:59.205Z,98288.03
2018-12-19T03:40:27.385Z,98286.87
2018-12-19T03:42:53.944Z,98294.67
2018-12-19T03:45:25.743Z,98289.47
2018-12-19T03:47:56.842Z,98293.34
2018-12-19T03:50:24.048Z,98296.55
2018-12-19T03:52:51.507Z,98295.16
2018-12-19T03:55:19.387Z,98303.42
2018-12-19T03:57:46.873Z,98300.69
2018-12-19T04:00:13.574Z,98302.95
2018-12-19T04:02:42.622Z,98297.88
2018-12-19T04:05:11.214Z,98300.55
2018-12-19T04:07:37.898Z,98298.62
2018-12-19T04:10:06.404Z,98287.24
2018-12-19T04:12:32.856Z,98288.07
2018-12-19T04:15:00.896Z,98296.33
2018-12-19T04:17:27.741Z,98296.08
2018-12-19T04:19:56.342Z,98295.47
2018-12-19T04:22:25.535Z,98295.69
2018-12-19T04:24:53.216Z,98291.02
2018-12-19T04:27:20.647Z,98291.70
2018-12-19T04:29:48.447Z,98302.06
2018-12-19T04:34:47.655Z,98308.52
2018-12-19T04:37:14.927Z,98304.22
2018-12-19T04:39:43.040Z,98306.91
2018-12-19T04:42:11.690Z,98308.75
2018-12-19T04:44:40.508Z,98303.70
2018-12-19T04:47:08.007Z,98302.77
2018-12-19T04:49:36.805Z,98302.67
2018-12-19T04:52:04.682Z,98304.95
2018-12-19T04:54:31.553Z,98308.89
2018-12-19T04:56:59.102Z,98308.09
2018-12-19T04:59:27.583Z,98307.44
2018-12-19T05:01:55.890Z,98299.86
2018-12-19T05:04:22.993Z,98310.19
2018-12-19T05:06:49.485Z,98311.14
2018-12-19T05:09:17.782Z,98310.98
2018-12-19T05:11:46.661Z,98308.98
2018-12-19T05:14:14.483Z,98309.14
2018-12-19T05:16:43.060Z,98314.38
2018-12-19T05:19:10.607Z,98310.39
2018-12-19T05:21:37.950Z,98312.26
2018-12-19T05:24:05.568Z,98312.45
2018-12-19T05:26:33.859Z,98312.73
2018-12-19T05:29:02.509Z,98309.76
2018-12-19T05:31:29.973Z,98309.63
2018-12-19T05:33:58.328Z,98304.24
2018-12-19T05:36:26.584Z,98301.27
2018-12-19T05:38:54.784Z,98299.63
2018-12-19T05:46:31.636Z,98299.05
2018-12-19T05:48:58.662Z,98296.33
2018-12-19T05:51:26.433Z,98292.64
2018-12-19T05:53:53.323Z,98293.19
2018-12-19T05:56:21.931Z,98292.97
2018-12-19T05:58:49.805Z,98289.33
2018-12-19T06:01:17.423Z,98288.27
2018-12-19T06:03:49.477Z,98292.07
2018-12-19T06:06:17.499Z,98292.77
2018-12-19T06:08:44.714Z,98287.45
2018-12-19T06:11:11.153Z,98293.59
2018-12-19T06:13:39.681Z,98299.36
2018-12-19T06:16:06.103Z,98306.05
2018-12-19T06:18:33.822Z,98311.09
2018-12-19T06:21:02.269Z,98305.55
2018-12-19T06:23:30.704Z,98309.73
2018-12-19T06:26:06.234Z,98307.59
2018-12-19T06:28:33.890Z,98314.33
2018-12-19T06:33:35.837Z,98321.41
2018-12-19T06:36:03.425Z,98318.96
2018-12-19T06:38:30.446Z,98320.28
2018-12-19T06:40:57.141Z,98327.98
2018-12-19T06:43:29.651Z,98320.43
2018-12-19T06:45:56.760Z,98326.20
2018-12-19T06:48:25.646Z,98316.92
2018-12-19T06:50:54.115Z,98324.59
2018-12-19T06:53:21.246Z,98328.87
2018-12-19T06:55:47.737Z,98325.56
2018-12-19T06:58:14.504Z,98325.30
2018-12-19T07:00:42.734Z,98321.77
2018-12-19T07:03:11.436Z,98331.83
2018-12-19T07:05:41.739Z,98324.38
2018-12-19T07:08:10.229Z,98323.91
2018-12-19T07:10:39.373Z,98322.13
2018-12-19T07:13:07.597Z,98319.80
2018-12-19T07:15:34.476Z,98326.63
2018-12-19T07:18:02.479Z,98325.89
2018-12-19T07:20:30.471Z,98326.69
2018-12-19T07:22:59.434Z,98325.56
2018-12-19T07:25:25.979Z,98328.66
2018-12-19T07:27:54.135Z,98327.52
2018-12-19T07:30:21.647Z,98321.49
2018-12-19T07:32:49.002Z,98323.52
2018-12-19T07:35:16.151Z,98324.91
2018-12-19T07:37:44.961Z,98323.11
2018-12-19T07:40:11.530Z,98325.84
2018-12-19T07:42:39.196Z,98327.98
2018-12-19T07:45:07.702Z,98328.33
2018-12-19T07:47:35.203Z,98331.88
2018-12-19T07:50:02.314Z,98329.63
2018-12-19T07:52:31.306Z,98329.95
2018-12-19T07:57:30.965Z,98333.91
2018-12-19T07:59:57.558Z,98333.19
2018-12-19T08:02:25.188Z,98330.69
2018-12-19T08:04:54.627Z,98329.64
2018-12-19T08:07:22.728Z,98326.56
2018-12-19T08:09:49.805Z,98331.61
2018-12-19T08:12:16.707Z,98334.48
2018-12-19T08:14:44.605Z,98339.23
2018-12-19T08:17:18.211Z,98336.19
2018-12-19T08:19:45.921Z,98341.33
2018-12-19T08:22:14.273Z,98336.80
2018-12-19T08:27:13.518Z,98335.25
2018-12-19T08:29:42.317Z,98331.73
2018-12-19T08:32:09.244Z,98336.38
2018-12-19T08:37:17.440Z,98330.95
2018-12-19T08:39:44.484Z,98334.03
2018-12-19T08:42:12.054Z,98332.98
2018-12-19T08:44:45.330Z,98330.43
2018-12-19T08:47:16.906Z,98326.66
2018-12-19T08:49:44.591Z,98323.19
2018-12-19T08:52:13.060Z,98327.95
2018-12-19T08:54:41.208Z,98335.37
2018-12-19T08:57:09.994Z,98340.86
2018-12-19T08:59:38.799Z,98338.42
2018-12-19T09:02:06.949Z,98339.41
2018-12-19T09:04:38.940Z,98341.70
2018-12-19T09:07:07.072Z,98334.89
2018-12-19T09:09:34.214Z,98339.41
2018-12-19T09:12:02.940Z,98344.05
2018-12-19T09:14:30.866Z,98338.62
2018-12-19T09:17:03.394Z,98331.63
2018-12-19T09:19:30.852Z,98327.23
2018-12-19T09:21:57.838Z,98324.44
2018-12-19T09:24:24.940Z,98317.62
2018-12-19T09:26:52.654Z,98313.22
2018-12-19T09:29:19.689Z,98318.36
2018-12-19T09:31:47.882Z,98322.22
2018-12-19T09:34:16.109Z,98324.02
2018-12-19T09:36:43.240Z,98312.30
2018-12-19T09:39:11.512Z,98312.80
2018-12-19T09:41:39.916Z,98309.12
2018-12-19T09:44:08.675Z,98299.41
2018-12-19T09:46:36.708Z,98301.30
2018-12-19T09:51:37.130Z,98292.56
2018-12-19T09:56:37.228Z,98281.45
2018-12-19T09:59:04.523Z,98278.14
2018-12-19T10:01:32.350Z,98275.71
2018-12-19T10:04:00.443Z,98261.45
2018-12-19T10:06:27.719Z,98266.28
2018-12-19T10:08:55.145Z,98263.75
2018-12-19T10:11:23.987Z,98267.41
2018-12-19T10:13:51.748Z,98254.09
2018-12-19T10:16:18.520Z,98258.84
2018-12-19T10:18:46.039Z,98259.83
2018-12-19T10:21:12.825Z,98256.23
2018-12-19T10:23:40.480Z,98252.86
2018-12-19T10:26:09.416Z,98248.84
2018-12-19T10:28:41.106Z,98235.23
2018-12-19T10:31:08.549Z,98236.53
2018-12-19T10:33:36.493Z,98231.95
2018-12-19T10:36:06.576Z,98232.02
2018-12-19T10:38:33.800Z,98233.18
2018-12-19T10:41:02.902Z,98236.01
2018-12-19T10:43:30.610Z,98224.80
2018-12-19T10:48:28.604Z,98225.52
2018-12-19T10:50:56.080Z,98213.16
2018-12-19T10:53:23.084Z,98217.73
2018-12-19T10:55:52.253Z,98215.66
2018-12-19T10:58:20.385Z,98211.58
2018-12-19T11:00:48.444Z,98209.53
2018-12-19T11:03:16.541Z,98204.16
2018-12-19T11:05:46.657Z,98194.09
2018-12-19T11:08:15.211Z,98194.31
2018-12-19T11:10:41.785Z,98185.12
2018-12-19T11:13:09.184Z,98193.66
2018-12-19T11:15:37.401Z,98195.18
2018-12-19T11:18:04.521Z,98190.97
2018-12-19T11:20:32.507Z,98191.70
2018-12-19T11:22:59.857Z,98193.23
2018-12-19T11:25:28.021Z,98191.20
2018-12-19T11:27:56.031Z,98185.89
2018-12-19T11:30:22.776Z,98190.95
2018-12-19T11:32:49.743Z,98184.19
2018-12-19T11:35:17.009Z,98183.03
2018-12-19T11:37:44.422Z,98183.84
2018-12-19T11:40:12.515Z,98189.53
2018-12-19T11:42:39.392Z,98191.46
2018-12-19T11:45:07.977Z,98189.23
2018-12-19T11:47:36.586Z,98184.21
2018-12-19T11:50:03.088Z,98186.66
2018-12-19T11:52:31.199Z,98175.69
2018-12-19T11:54:58.960Z,98172.53
2018-12-19T11:57:26.852Z,98167.14
2018-12-19T11:59:54.260Z,98179.34
2018-12-19T12:02:22.924Z,98171.47
2018-12-19T12:04:51.583Z,98168.13
2018-12-19T12:07:18.830Z,98166.09
2018-12-19T12:09:47.015Z,98166.88
2018-12-19T12:12:13.745Z,98161.27
2018-12-19T12:14:41.580Z,98152.20
2018-12-19T12:17:09.566Z,98149.82
2018-12-19T12:19:37.179Z,98143.74
2018-12-19T12:22:04.954Z,98144.32
2018-12-19T12:24:32.385Z,98140.41
2018-12-19T12:27:04.555Z,98139.16
2018-12-19T12:29:32.198Z,98135.93
2018-12-19T12:32:00.078Z,98138.41
2018-12-19T12:34:27.268Z,98132.88
2018-12-19T12:36:55.406Z,98134.02
2018-12-19T12:39:23.617Z,98130.48
2018-12-19T12:41:52.425Z,98130.55
2018-12-19T12:44:20.272Z,98132.06
2018-12-19T12:46:51.391Z,98125.21
2018-12-19T12:51:50.356Z,98128.05
2018-12-19T12:54:22.216Z,98117.12
2018-12-19T12:56:51.040Z,98112.90
2018-12-19T12:59:20.044Z,98108.45
2018-12-19T13:01:47.100Z,98110.11
2018-12-19T13:04:14.451Z,98106.48
2018-12-19T13:06:46.070Z,98106.91
2018-12-19T13:09:13.405Z,98097.20
2018-12-19T13:11:40.504Z,98102.51
2018-12-19T13:14:07.053Z,98097.41
2018-12-19T13:16:35.463Z,98096.06
2018-12-19T13:19:03.254Z,98086.23
2018-12-19T13:21:31.569Z,98091.50
2018-12-19T13:24:00.135Z,98090.80
2018-12-19T13:26:26.877Z,98092.03
2018-12-19T13:28:55.701Z,98096.55
2018-12-19T13:31:24.371Z,98086.17
2018-12-19T13:33:52.591Z,98084.60
2018-12-19T13:36:20.951Z,98088.72
2018-12-19T13:38:49.193Z,98093.41
2018-12-19T13:41:16.662Z,98093.30
2018-12-19T13:43:44.498Z,98088.44
2018-12-19T13:48:45.278Z,98092.02
2018-12-19T13:51:12.552Z,98091.94
2018-12-19T13:53:39.997Z,98090.02
2018-12-19T13:56:06.960Z,98086.34
2018-12-19T13:58:34.702Z,98086.52
2018-12-19T14:01:03.030Z,98083.16
2018-12-19T14:03:32.054Z,98084.47
2018-12-19T14:05:59.205Z,98070.80
2018-12-19T14:08:27.391Z,98069.80
2018-12-19T14:10:55.534Z,98075.76
2018-12-19T14:13:22.524Z,98067.28
2018-12-19T14:15:49.972Z,98069.70
2018-12-19T14:18:18.255Z,98065.86
2018-12-19T14:20:45.655Z,98052.95
2018-12-19T14:23:12.406Z,98053.21
2018-12-19T14:25:39.838Z,98054.59
2018-12-19T14:30:39.026Z,98055.49
2018-12-19T14:33:07.003Z,98057.06
2018-12-19T14:35:35.268Z,98054.33
2018-12-19T14:38:06.216Z,98058.72
2018-12-19T14:40:34.960Z,98061.33
2018-12-19T14:43:02.148Z,98064.36
2018-12-19T14:45:30.182Z,98063.61
2018-12-19T14:50:30.489Z,98061.40
2018-12-19T14:52:58.640Z,98063.52
2018-12-19T14:55:25.809Z,98058.98
2018-12-19T14:57:53.073Z,98058.38
2018-12-19T15:02:56.123Z,98060.87
2018-12-19T15:05:24.260Z,98061.27
2018-12-19T15:10:41.044Z,98067.36
2018-12-19T15:13:09.519Z,98060.92
2018-12-19T15:15:37.090Z,98063.84
2018-12-19T15:20:37.641Z,98061.09
2018-12-19T15:23:05.136Z,98067.95
2018-12-19T15:25:33.151Z,98068.73
2018-12-19T15:28:00.883Z,98067.95
2018-12-19T15:30:29.537Z,98063.33
2018-12-19T15:32:58.226Z,98065.16
2018-12-19T15:35:26.128Z,98062.17
2018-12-19T15:37:54.351Z,98064.19
2018-12-19T15:40:22.499Z,98059.01
2018-12-19T15:42:49.868Z,98061.52
2018-12-19T15:45:19.106Z,98065.52
2018-12-19T15:47:45.911Z,98067.61
2018-12-19T15:50:13.132Z,98063.38
2018-12-19T15:55:12.888Z,98052.44
2018-12-19T15:57:41.627Z,98048.00
2018-12-19T16:00:09.154Z,98035.70
2018-12-19T16:02:37.219Z,98041.77
2018-12-19T16:05:07.770Z,98039.11
2018-12-19T16:07:36.019Z,98041.94
2018-12-19T16:10:03.570Z,98041.55
2018-12-19T16:12:39.088Z,98035.16
2018-12-19T16:15:04.909Z,98041.83
2018-12-19T16:17:33.511Z,98043.28
2018-12-19T16:20:01.479Z,98043.83
2018-12-19T16:22:29.229Z,98041.77
2018-12-19T16:24:57.922Z,98042.67
2018-12-19T16:27:25.391Z,98036.34
2018-12-19T16:29:51.830Z,98034.22
2018-12-19T16:32:19.383Z,98028.09
2018-12-19T16:34:48.774Z,98015.36
2018-12-19T16:37:15.877Z,98012.75
2018-12-19T16:39:43.744Z,98011.70
2018-12-19T16:42:10.677Z,98011.16
2018-12-19T16:44:37.524Z,98003.73
2018-12-19T16:47:04.970Z,97996.67
2018-12-19T16:49:32.229Z,97997.17
2018-12-19T16:51:59.617Z,98000.86
2018-12-19T16:54:29.573Z,98006.05
2018-12-19T16:56:58.823Z,98004.66
2018-12-19T17:02:03.504Z,98007.54
2018-12-19T17:04:30.022Z,98007.47
2018-12-19T17:06:57.351Z,98000.80
2018-12-19T17:12:02.464Z,97982.08
2018-12-19T17:14:35.412Z,97986.90
2018-12-19T17:17:05.382Z,97986.34
2018-12-19T17:19:31.936Z,97982.70
2018-12-19T17:22:00.027Z,97985.86
2018-12-19T17:27:00.967Z,97990.27
2018-12-19T17:32:21.509Z,97995.13
2018-12-19T17:34:49.477Z,98003.92
2018-12-19T17:37:17.554Z,97992.72
2018-12-19T17:39:50.674Z,97985.28
2018-12-19T17:42:18.129Z,97983.50
2018-12-19T17:44:46.381Z,97986.31
2018-12-19T17:47:14.131Z,97985.33
2018-12-19T17:49:42.879Z,97978.27
2018-12-19T17:52:10.662Z,97968.45
2018-12-19T17:54:38.038Z,97972.20
2018-12-19T17:57:05.340Z,97970.45
2018-12-19T17:59:37.083Z,97978.09
2018-12-19T18:02:04.343Z,97977.96
2018-12-19T18:04:31.810Z,97966.35
2018-12-19T18:06:58.277Z,97971.70
2018-12-19T18:09:26.284Z,97968.63
2018-12-19T18:11:54.517Z,97968.26
2018-12-19T18:14:22.629Z,97968.75
2018-12-19T18:16:51.116Z,97968.12
2018-12-19T18:19:23.320Z,97957.11
2018-12-19T18:21:48.707Z,97959.69
2018-12-19T18:24:16.860Z,97948.84
2018-12-19T18:26:43.972Z,97944.90
2018-12-19T18:29:10.936Z,97954.20
2018-12-19T18:31:39.269Z,97953.73
2018-12-19T18:34:07.515Z,97942.25
2018-12-19T18:36:34.382Z,97946.14
2018-12-19T18:39:01.355Z,97948.53
2018-12-19T18:41:30.319Z,97939.55
2018-12-19T18:43:58.715Z,97934.46
2018-12-19T18:46:27.880Z,97938.32
2018-12-19T18:48:55.966Z,97944.56
2018-12-19T18:51:23.821Z,97946.86
2018-12-19T18:53:55.580Z,97952.01
2018-12-19T18:56:25.001Z,97950.17
2018-12-19T18:58:52.779Z,97948.30
2018-12-19T19:01:20.064Z,97939.69
2018-12-19T19:03:47.510Z,97937.39
2018-12-19T19:06:14.354Z,97939.69
2018-12-19T19:08:42.385Z,97941.29
2018-12-19T19:11:09.715Z,97938.16
2018-12-19T19:13:36.991Z,97943.62
2018-12-19T19:16:05.999Z,97951.67
2018-12-19T19:18:32.497Z,97960.89
2018-12-19T19:21:00.004Z,97959.65
2018-12-19T19:23:27.635Z,97957.06
2018-12-19T19:25:55.367Z,97952.97
2018-12-19T19:28:22.293Z,97944.19
2018-12-19T19:30:49.791Z,97934.22
2018-12-19T19:33:19.035Z,97935.03
2018-12-19T19:35:47.713Z,97928.13
2018-12-19T19:38:15.490Z,97923.04
2018-12-19T19:40:42.603Z,97923.42
2018-12-19T19:43:11.574Z,97923.33
2018-12-19T19:45:39.771Z,97924.89
2018-12-19T19:48:07.305Z,97918.50
2018-12-19T19:50:38.007Z,97917.36
2018-12-19T19:53:05.833Z,97924.99
2018-12-19T19:58:05.955Z,97923.66
2018-12-19T20:00:35.690Z,97913.55
2018-12-19T20:03:03.445Z,97912.58
2018-12-19T20:08:41.117Z,97905.91
2018-12-19T20:11:09.858Z,97900.95
2018-12-19T20:13:37.665Z,97890.80
2018-12-19T20:16:06.920Z,97895.08
2018-12-19T20:18:35.238Z,97907.08
2018-12-19T20:21:03.663Z,97898.59
2018-12-19T20:23:34.033Z,97893.59
2018-12-19T20:26:04.597Z,97888.50
2018-12-19T20:28:32.742Z,97882.17
2018-12-19T20:31:02.491Z,97871.16
2018-12-19T20:33:30.370Z,97862.48
2018-12-19T20:38:31.014Z,97854.36
2018-12-19T20:40:57.875Z,97866.87
2018-12-19T20:43:25.736Z,97860.73
2018-12-19T20:45:53.842Z,97865.28
2018-12-19T20:48:23.051Z,97866.27
2018-12-19T20:50:50.335Z,97869.95
2018-12-19T20:53:18.225Z,97876.95
2018-12-19T20:58:25.271Z,97873.44
2018-12-19T21:00:52.810Z,97860.73
2018-12-19T21:03:20.013Z,97866.49
2018-12-19T21:08:20.660Z,97867.03
2018-12-19T21:10:48.132Z,97870.62
2018-12-19T21:13:16.694Z,97875.10
2018-12-19T21:15:51.761Z,97876.56
2018-12-19T21:18:18.540Z,97871.87
2018-12-19T21:20:45.876Z,97862.00
2018-12-19T21:23:12.985Z,97858.87
2018-12-19T21:25:42.912Z,97852.67
2018-12-19T21:28:13.065Z,97846.70
2018-12-19T21:30:41.950Z,97849.19
2018-12-19T21:35:41.900Z,97868.91
2018-12-19T21:38:08.445Z,97870.70
2018-12-19T21:40:37.306Z,97872.45
2018-12-19T21:43:06.035Z,97875.00
2018-12-19T21:45:34.764Z,97870.55
2018-12-19T21:48:01.519Z,97871.09
2018-12-19T21:53:01.456Z,97846.80
2018-12-19T21:55:27.963Z,97852.03
2018-12-19T21:57:55.048Z,97857.55
2018-12-19T22:00:22.435Z,97853.25
2018-12-19T22:02:49.704Z,97858.19
2018-12-19T22:05:17.870Z,97851.31
2018-12-19T22:07:46.531Z,97849.82
2018-12-19T22:10:13.283Z,97844.02
2018-12-19T22:12:41.339Z,97841.65
2018-12-19T22:15:09.343Z,97839.46
2018-12-19T22:17:36.660Z,97842.28
2018-12-19T22:20:04.431Z,97848.42
2018-12-19T22:22:32.434Z,97846.70
2018-12-19T22:25:00.700Z,97848.12
2018-12-19T22:27:27.321Z,97852.07
2018-12-19T22:29:55.060Z,97840.54
2018-12-19T22:32:23.754Z,97838.31
2018-12-19T22:34:51.295Z,97843.67
2018-12-19T22:37:18.480Z,97841.25
2018-12-19T22:39:45.831Z,97839.53
2018-12-19T22:42:12.926Z,97841.62
2018-12-19T22:44:40.978Z,97847.42
2018-12-19T22:49:45.232Z,97831.69
2018-12-19T22:52:13.594Z,97829.26
2018-12-19T22:54:41.448Z,97819.08
2018-12-19T22:59:44.440Z,97819.98
2018-12-19T23:02:14.095Z,97826.02
2018-12-19T23:04:43.890Z,97827.95
2018-12-19T23:09:52.440Z,97829.09
2018-12-19T23:12:19.574Z,97825.72
2018-12-19T23:14:46.820Z,97817.17
2018-12-19T23:19:55.411Z,97798.45
2018-12-19T23:22:23.923Z,97803.74
2018-12-19T23:24:52.932Z,97803.34
2018-12-19T23:27:25.379Z,97797.27
2018-12-19T23:29:52.786Z,97800.33
2018-12-19T23:32:21.975Z,97799.30
2018-12-19T23:34:48.480Z,97797.27
2018-12-19T23:37:16.697Z,97791.81
2018-12-19T23:39:43.641Z,97787.28
2018-12-19T23:42:12.823Z,97781.76
2018-12-19T23:44:40.236Z,97778.02
2018-12-19T23:49:40.543Z,97772.58
2018-12-19T23:52:08.691Z,97783.95
2018-12-19T23:54:37.376Z,97784.55
